Time;durP1;ratioP1;P1;durP2;ratioP2;P2;SDS_P1;SDS_P2;PMS_P1;PMS_P2;Temp;Humidity;BMP_temperature;BMP_pressure;BME280_temperature;BME280_humidity;BME280_pressure;Samples;Min_cycle;Max_cycle;Signal;HPM_P1;HPM_P2
2023/04/06 00:00:34;;;;;;;7.57;4.43;;;2.70;99.90;;;;;;5056308;28;20573;-69
2023/04/06 00:03:01;;;;;;;9.33;5.13;;;2.70;99.90;;;;;;5055610;28;20194;-69
2023/04/06 00:05:30;;;;;;;8.73;5.13;;;2.70;99.90;;;;;;5056317;28;20201;-68
2023/04/06 00:07:58;;;;;;;10.40;4.90;;;2.70;99.90;;;;;;5073946;28;20244;-70
2023/04/06 00:10:26;;;;;;;10.27;4.93;;;2.70;99.90;;;;;;5055656;28;20228;-69
2023/04/06 00:12:56;;;;;;;10.27;5.40;;;2.60;99.90;;;;;;5055815;28;20558;-71
2023/04/06 00:15:23;;;;;;;8.20;5.30;;;2.60;99.90;;;;;;5073596;28;20239;-68
2023/04/06 00:17:51;;;;;;;10.07;4.80;;;2.60;99.90;;;;;;5072743;28;20240;-69
2023/04/06 00:20:18;;;;;;;8.20;4.90;;;2.60;99.90;;;;;;5054514;28;20229;-70
2023/04/06 00:22:45;;;;;;;7.27;4.20;;;2.50;99.90;;;;;;5055189;28;20196;-70
2023/04/06 00:25:12;;;;;;;7.03;3.83;;;2.50;99.90;;;;;;5051303;28;20223;-72
2023/04/06 00:27:39;;;;;;;6.87;3.77;;;2.40;99.90;;;;;;5050959;28;20189;-69
2023/04/06 00:30:07;;;;;;;7.60;3.90;;;2.40;99.90;;;;;;5052818;28;20566;-73
2023/04/06 00:32:35;;;;;;;8.77;4.23;;;2.40;99.90;;;;;;5051333;28;20194;-70
2023/04/06 00:35:03;;;;;;;8.17;4.03;;;2.50;99.90;;;;;;5050695;28;20203;-71
2023/04/06 00:37:30;;;;;;;7.53;4.80;;;2.40;99.90;;;;;;5051267;28;20638;-69
2023/04/06 00:39:57;;;;;;;9.37;4.90;;;2.40;99.90;;;;;;5052125;28;20214;-71
2023/04/06 00:42:25;;;;;;;10.47;5.00;;;2.50;99.90;;;;;;5047874;28;20202;-70
2023/04/06 00:44:54;;;;;;;9.70;5.30;;;2.40;99.90;;;;;;5051000;28;20233;-68
2023/04/06 00:47:22;;;;;;;11.20;5.40;;;2.40;99.90;;;;;;5050807;28;20206;-68
2023/04/06 00:49:49;;;;;;;9.43;5.37;;;2.40;99.90;;;;;;5052251;28;20229;-68
2023/04/06 00:52:16;;;;;;;8.77;5.10;;;2.50;99.90;;;;;;5052239;28;20198;-69
2023/04/06 00:54:43;;;;;;;11.47;5.47;;;2.50;99.90;;;;;;5051034;28;20203;-67
2023/04/06 00:57:14;;;;;;;8.87;4.90;;;2.50;99.90;;;;;;5050790;28;20641;-68
2023/04/06 00:59:43;;;;;;;10.00;5.50;;;2.40;99.90;;;;;;5050920;28;20190;-68
2023/04/06 01:02:10;;;;;;;11.73;5.57;;;2.50;99.90;;;;;;5050417;28;20535;-68
2023/04/06 01:04:37;;;;;;;10.37;5.43;;;2.50;99.90;;;;;;5052497;28;20211;-71
2023/04/06 01:07:04;;;;;;;10.20;5.77;;;2.50;99.90;;;;;;5050815;28;20191;-70
2023/04/06 01:09:31;;;;;;;11.80;5.63;;;2.60;99.90;;;;;;5052180;28;20227;-70
2023/04/06 01:11:58;;;;;;;10.53;5.53;;;2.50;99.90;;;;;;5050781;28;20188;-71
2023/04/06 01:14:26;;;;;;;10.43;5.47;;;2.50;99.90;;;;;;5051097;28;20235;-72
2023/04/06 01:16:53;;;;;;;11.00;5.10;;;2.60;99.90;;;;;;5050636;28;20199;-72
2023/04/06 01:19:22;;;;;;;12.10;5.40;;;2.50;99.90;;;;;;5050677;28;20285;-71
2023/04/06 01:21:50;;;;;;;11.00;5.50;;;2.50;99.90;;;;;;5050740;28;20224;-71
2023/04/06 01:24:17;;;;;;;8.73;4.90;;;2.50;99.90;;;;;;5055899;28;20329;-70
2023/04/06 01:26:44;;;;;;;9.60;4.70;;;2.50;99.90;;;;;;5054059;28;20528;-74
2023/04/06 01:29:11;;;;;;;9.20;4.67;;;2.60;99.90;;;;;;5053911;28;20206;-71
2023/04/06 01:31:39;;;;;;;8.30;4.30;;;2.60;99.90;;;;;;5054127;28;20764;-71
2023/04/06 01:34:07;;;;;;;9.83;4.60;;;2.60;99.90;;;;;;5071684;28;20557;-73
2023/04/06 01:36:34;;;;;;;6.67;4.20;;;2.60;99.90;;;;;;5053921;28;20178;-72
2023/04/06 01:39:01;;;;;;;7.90;4.40;;;2.60;99.90;;;;;;5053918;28;20194;-74
2023/04/06 01:41:28;;;;;;;9.73;4.63;;;2.60;99.90;;;;;;5054066;28;20202;-73
2023/04/06 01:43:55;;;;;;;9.53;4.43;;;2.70;99.90;;;;;;5053810;28;20209;-76
2023/04/06 01:46:22;;;;;;;10.17;4.17;;;2.70;99.90;;;;;;5053621;28;20185;-72
2023/04/06 01:48:49;;;;;;;7.47;4.07;;;2.60;99.90;;;;;;5053553;28;20252;-71
2023/04/06 01:51:16;;;;;;;7.70;4.30;;;2.70;99.90;;;;;;5071520;28;20189;-71
2023/04/06 01:53:43;;;;;;;8.50;4.17;;;2.70;99.90;;;;;;5053335;28;20198;-74
2023/04/06 01:56:10;;;;;;;9.47;4.40;;;2.70;99.90;;;;;;5053594;28;20545;-72
2023/04/06 01:58:37;;;;;;;9.37;4.27;;;2.70;99.90;;;;;;5053662;28;20219;-74
2023/04/06 02:01:03;;;;;;;9.33;4.47;;;2.70;99.90;;;;;;5053574;28;20570;-72
2023/04/06 02:03:31;;;;;;;7.47;4.30;;;2.70;99.90;;;;;;5053722;28;20202;-72
2023/04/06 02:05:58;;;;;;;6.40;3.80;;;2.70;99.90;;;;;;5071357;28;20193;-73
2023/04/06 02:08:26;;;;;;;7.97;4.40;;;2.70;99.90;;;;;;5053231;28;20683;-74
2023/04/06 02:10:53;;;;;;;8.43;4.40;;;2.80;99.90;;;;;;5053391;28;20642;-73
2023/04/06 02:13:24;;;;;;;7.70;4.00;;;2.80;99.90;;;;;;5054947;28;20570;-73
2023/04/06 02:15:51;;;;;;;8.33;3.80;;;2.80;99.90;;;;;;5057134;28;20222;-73
2023/04/06 02:18:18;;;;;;;7.83;3.77;;;2.70;99.90;;;;;;5056781;28;20204;-74
2023/04/06 02:20:45;;;;;;;8.07;4.27;;;2.60;99.90;;;;;;5074908;28;20219;-73
2023/04/06 02:23:12;;;;;;;7.10;4.57;;;2.60;99.90;;;;;;5074849;28;20202;-74
2023/04/06 02:25:42;;;;;;;8.87;4.37;;;2.60;99.90;;;;;;5056406;28;20234;-74
2023/04/06 02:28:09;;;;;;;7.87;3.87;;;2.50;99.90;;;;;;5074604;28;20214;-72
2023/04/06 02:30:36;;;;;;;9.07;4.20;;;2.60;99.90;;;;;;5075016;28;20286;-73
2023/04/06 02:33:03;;;;;;;6.37;4.00;;;2.50;99.90;;;;;;5056815;28;20186;-73
2023/04/06 02:35:31;;;;;;;8.13;4.17;;;2.60;99.90;;;;;;5074981;28;20204;-74
2023/04/06 02:37:58;;;;;;;7.40;4.30;;;2.50;99.90;;;;;;5056880;28;20194;-73
2023/04/06 02:40:25;;;;;;;8.77;4.30;;;2.60;99.90;;;;;;5056588;28;20206;-77
2023/04/06 02:42:52;;;;;;;7.67;4.10;;;2.60;99.90;;;;;;5056503;28;20296;-72
2023/04/06 02:45:22;;;;;;;11.10;4.77;;;2.60;99.90;;;;;;5056871;28;20240;-76
2023/04/06 02:47:49;;;;;;;9.47;4.00;;;2.60;99.90;;;;;;5056261;28;20198;-72
2023/04/06 02:50:16;;;;;;;10.07;4.67;;;2.50;99.90;;;;;;5056371;28;20283;-72
2023/04/06 02:52:43;;;;;;;10.10;4.57;;;2.50;99.90;;;;;;5056316;28;20197;-74
2023/04/06 02:55:10;;;;;;;9.30;4.70;;;2.50;99.90;;;;;;5056268;28;20203;-73
2023/04/06 02:57:37;;;;;;;8.70;4.63;;;2.50;99.90;;;;;;5056250;28;20197;-74
2023/04/06 03:00:04;;;;;;;9.93;4.83;;;2.50;99.90;;;;;;5056296;28;20208;-75
2023/04/06 03:02:31;;;;;;;8.20;4.10;;;2.50;99.90;;;;;;5074213;28;20205;-73
2023/04/06 03:04:58;;;;;;;7.50;4.17;;;2.40;99.90;;;;;;5056379;28;20309;-73
2023/04/06 03:07:25;;;;;;;8.37;4.60;;;2.40;99.90;;;;;;5073832;28;20187;-72
2023/04/06 03:09:52;;;;;;;7.67;4.10;;;2.40;99.90;;;;;;5055918;28;20210;-73
2023/04/06 03:12:19;;;;;;;9.80;4.40;;;2.40;99.90;;;;;;5056251;28;20201;-72
2023/04/06 03:14:46;;;;;;;6.83;4.20;;;2.50;99.90;;;;;;5074123;28;20539;-73
2023/04/06 03:17:13;;;;;;;10.37;4.27;;;2.40;99.90;;;;;;5055739;28;20199;-71
2023/04/06 03:19:40;;;;;;;9.13;4.70;;;2.40;99.90;;;;;;5055811;28;20197;-74
2023/04/06 03:22:07;;;;;;;9.77;4.93;;;2.30;99.90;;;;;;5055844;28;20308;-72
2023/04/06 03:24:33;;;;;;;9.47;4.70;;;2.30;99.90;;;;;;5055607;28;20241;-73
2023/04/06 03:27:00;;;;;;;11.53;5.40;;;2.30;99.90;;;;;;5056038;28;20248;-72
2023/04/06 03:29:27;;;;;;;11.33;5.23;;;2.30;99.90;;;;;;5056087;28;20226;-72
2023/04/06 03:31:54;;;;;;;12.70;5.73;;;2.30;99.90;;;;;;5056351;28;20199;-75
2023/04/06 03:34:21;;;;;;;11.33;5.00;;;2.30;99.90;;;;;;5056566;28;20219;-74
2023/04/06 03:36:48;;;;;;;15.40;5.30;;;2.30;99.90;;;;;;5055926;28;20194;-73
2023/04/06 03:39:32;;;;;;;11.97;6.00;;;2.20;99.90;;;;;;5055826;28;20370;-75
2023/04/06 03:41:59;;;;;;;12.83;5.40;;;2.20;99.90;;;;;;5055982;28;20200;-76
2023/04/06 03:44:26;;;;;;;12.83;5.60;;;2.20;99.90;;;;;;5073592;28;20186;-75
2023/04/06 03:46:53;;;;;;;12.50;5.80;;;2.20;99.90;;;;;;5055466;28;20198;-76
2023/04/06 03:49:20;;;;;;;14.87;5.53;;;2.20;99.90;;;;;;4975103;28;20232;-74
2023/04/06 03:51:47;;;;;;;12.53;5.30;;;2.20;99.90;;;;;;4991707;28;20209;-76
2023/04/06 03:54:14;;;;;;;12.47;5.10;;;2.20;99.90;;;;;;4975403;28;20652;-76
2023/04/06 03:56:44;;;;;;;12.90;5.40;;;2.10;99.90;;;;;;4991489;28;20267;-74
2023/04/06 03:59:11;;;;;;;12.53;5.43;;;2.00;99.90;;;;;;4975399;28;20300;-75
2023/04/06 04:01:39;;;;;;;10.23;5.10;;;2.10;99.90;;;;;;4991666;28;20287;-76
2023/04/06 04:04:06;;;;;;;10.90;5.30;;;2.00;99.90;;;;;;4991358;28;20622;-73
2023/04/06 04:06:36;;;;;;;11.97;5.13;;;2.00;99.90;;;;;;5000588;28;20717;-76
2023/04/06 04:09:04;;;;;;;12.27;5.73;;;2.00;99.90;;;;;;5056303;28;20698;-78
2023/04/06 04:11:31;;;;;;;12.40;5.40;;;2.00;99.90;;;;;;5073431;28;20200;-78
2023/04/06 04:14:13;;;;;;;10.70;5.40;;;2.10;99.90;;;;;;5054775;28;20282;-79
2023/04/06 04:16:59;;;;;;;12.73;5.17;;;2.00;99.90;;;;;;5054746;28;20551;-78
2023/04/06 04:19:46;;;;;;;11.50;5.50;;;2.10;99.90;;;;;;5072610;28;20200;-77
2023/04/06 04:22:27;;;;;;;11.27;5.07;;;2.00;99.90;;;;;;5054713;28;20194;-77
2023/04/06 04:24:56;;;;;;;11.53;5.50;;;2.00;99.90;;;;;;5072650;28;20300;-80
2023/04/06 04:27:23;;;;;;;19.00;6.13;;;1.90;99.90;;;;;;5054446;28;20614;-78
2023/04/06 04:29:50;;;;;;;11.13;5.60;;;1.80;99.90;;;;;;5054535;28;20721;-79
2023/04/06 04:32:19;;;;;;;11.80;5.47;;;1.90;99.90;;;;;;5054679;28;20203;-80
2023/04/06 04:34:47;;;;;;;13.57;5.63;;;1.90;99.90;;;;;;5055749;28;20289;-79
2023/04/06 04:37:17;;;;;;;11.17;5.80;;;2.00;99.90;;;;;;5056131;28;20198;-80
2023/04/06 04:39:45;;;;;;;12.27;6.20;;;2.10;99.90;;;;;;5037866;28;20548;-81
2023/04/06 04:42:12;;;;;;;10.90;5.03;;;2.00;99.90;;;;;;5054330;28;20197;-80
2023/04/06 04:44:38;;;;;;;10.27;5.00;;;2.10;99.90;;;;;;5072481;28;20221;-80
2023/04/06 04:47:15;;;;;;;12.63;6.10;;;2.10;99.90;;;;;;5072116;28;20185;-79
2023/04/06 04:49:42;;;;;;;9.53;4.83;;;2.00;99.90;;;;;;5042370;28;20304;-78
2023/04/06 04:52:09;;;;;;;12.33;4.97;;;2.20;99.90;;;;;;5054313;28;20224;-79
2023/04/06 04:54:36;;;;;;;10.40;5.17;;;2.20;99.90;;;;;;5072536;28;20639;-79
2023/04/06 04:57:02;;;;;;;10.07;4.87;;;2.20;99.90;;;;;;5054590;28;20205;-80
2023/04/06 04:59:29;;;;;;;9.17;4.70;;;2.40;99.90;;;;;;5054251;28;20190;-81
2023/04/06 05:02:02;;;;;;;9.37;4.93;;;2.30;99.90;;;;;;5054148;28;20236;-77
2023/04/06 05:04:30;;;;;;;11.53;5.27;;;2.30;99.90;;;;;;5054411;28;20615;-79
2023/04/06 05:07:04;;;;;;;10.07;5.00;;;2.50;99.90;;;;;;5053874;28;20195;-79
2023/04/06 05:09:32;;;;;;;11.53;5.30;;;2.50;99.90;;;;;;5053949;28;20253;-76
2023/04/06 05:12:00;;;;;;;8.73;4.87;;;2.40;99.90;;;;;;5054140;28;20207;-76
2023/04/06 05:14:27;;;;;;;10.67;4.77;;;2.50;99.90;;;;;;5054144;28;20229;-79
2023/04/06 05:16:54;;;;;;;10.20;5.30;;;2.40;99.90;;;;;;5053967;28;20202;-80
2023/04/06 05:19:21;;;;;;;8.60;4.60;;;2.60;99.90;;;;;;5053959;28;20202;-78
2023/04/06 05:21:48;;;;;;;10.27;4.40;;;2.50;99.90;;;;;;5054252;28;20225;-80
2023/04/06 05:24:15;;;;;;;12.50;5.03;;;2.40;99.90;;;;;;5053834;28;20195;-78
2023/04/06 05:26:42;;;;;;;9.33;4.47;;;2.30;99.90;;;;;;5054218;28;20209;-79
2023/04/06 05:29:13;;;;;;;7.73;4.00;;;2.40;99.90;;;;;;5054258;28;20314;-80
2023/04/06 05:31:43;;;;;;;12.53;4.40;;;2.40;99.90;;;;;;5072678;28;20282;-79
2023/04/06 05:34:42;;;;;;;9.50;4.47;;;2.50;99.90;;;;;;5010572;28;20730;-79
2023/04/06 05:37:09;;;;;;;12.90;4.40;;;2.60;99.90;;;;;;4993736;28;20201;-78
2023/04/06 05:39:36;;;;;;;8.20;4.43;;;2.60;99.90;;;;;;4993665;28;20557;-79
2023/04/06 05:42:06;;;;;;;9.93;3.93;;;2.70;99.90;;;;;;4993421;28;20591;-78
2023/04/06 05:44:33;;;;;;;7.53;4.03;;;2.70;99.90;;;;;;4993515;28;20614;-77
2023/04/06 05:47:00;;;;;;;8.33;4.40;;;2.80;99.90;;;;;;5009737;28;20284;-79
2023/04/06 05:49:27;;;;;;;8.30;4.17;;;2.80;99.90;;;;;;4996528;28;20219;-79
2023/04/06 05:51:55;;;;;;;8.30;3.80;;;2.90;99.90;;;;;;4997162;28;20204;-77
2023/04/06 05:54:22;;;;;;;8.80;4.20;;;2.90;99.90;;;;;;4997257;28;20197;-77
2023/04/06 05:56:49;;;;;;;6.03;3.67;;;3.10;99.90;;;;;;4996963;28;20196;-78
2023/04/06 05:59:16;;;;;;;7.80;3.90;;;3.20;99.90;;;;;;5014154;28;20668;-77
2023/04/06 06:01:43;;;;;;;7.07;4.10;;;3.20;99.90;;;;;;5013426;28;20193;-79
2023/04/06 06:04:10;;;;;;;8.53;3.90;;;3.30;99.90;;;;;;5000730;28;20199;-79
2023/04/06 06:06:37;;;;;;;9.30;3.83;;;3.20;99.90;;;;;;5057250;28;20198;-79
2023/04/06 06:09:04;;;;;;;7.40;3.90;;;3.20;99.90;;;;;;5057333;28;20633;-77
2023/04/06 06:11:32;;;;;;;8.10;3.67;;;3.20;99.90;;;;;;5058507;28;20203;-75
2023/04/06 06:14:00;;;;;;;6.13;3.43;;;3.20;99.90;;;;;;5057626;28;20256;-77
2023/04/06 06:16:27;;;;;;;7.80;3.70;;;3.30;99.90;;;;;;5075404;28;20194;-76
2023/04/06 06:18:54;;;;;;;8.83;3.77;;;3.30;99.90;;;;;;5075248;28;20285;-76
2023/04/06 06:21:21;;;;;;;8.83;4.00;;;3.30;99.90;;;;;;5057070;28;20211;-75
2023/04/06 06:23:49;;;;;;;7.87;3.43;;;3.30;99.90;;;;;;5057191;28;20700;-76
2023/04/06 06:26:16;;;;;;;8.50;3.60;;;3.30;99.90;;;;;;5074762;28;20222;-76
2023/04/06 06:28:43;;;;;;;8.70;3.90;;;3.50;99.90;;;;;;5057017;28;20219;-77
2023/04/06 06:31:10;;;;;;;6.97;3.33;;;3.50;99.90;;;;;;5056732;28;20585;-75
2023/04/06 06:33:37;;;;;;;7.53;3.53;;;3.40;99.90;;;;;;5056708;28;20244;-76
2023/04/06 06:36:04;;;;;;;7.23;3.27;;;3.40;99.90;;;;;;5056648;28;20262;-77
2023/04/06 06:38:31;;;;;;;7.67;3.03;;;3.50;99.90;;;;;;5056598;28;20191;-75
2023/04/06 06:40:59;;;;;;;5.97;3.23;;;3.50;99.90;;;;;;5056679;28;20310;-77
2023/04/06 06:43:29;;;;;;;7.43;3.30;;;3.60;99.90;;;;;;5056799;28;20202;-76
2023/04/06 06:45:56;;;;;;;6.17;3.30;;;3.50;99.90;;;;;;5074485;28;20606;-76
2023/04/06 06:48:23;;;;;;;6.50;3.17;;;3.40;99.90;;;;;;5056535;28;20643;-82
2023/04/06 06:50:50;;;;;;;7.47;3.10;;;3.60;99.90;;;;;;5056633;28;20249;-76
2023/04/06 06:53:17;;;;;;;9.13;3.10;;;3.50;99.90;;;;;;5056526;28;20287;-80
2023/04/06 06:55:45;;;;;;;5.80;2.83;;;3.60;99.90;;;;;;5056654;28;20203;-75
2023/04/06 06:58:12;;;;;;;5.27;3.07;;;3.70;99.90;;;;;;5056713;28;20205;-75
2023/04/06 07:00:39;;;;;;;5.83;3.23;;;3.80;99.90;;;;;;5056630;28;20216;-76
2023/04/06 07:03:06;;;;;;;6.30;3.03;;;3.90;99.90;;;;;;5074826;28;20200;-73
2023/04/06 07:05:33;;;;;;;5.23;2.63;;;3.80;99.90;;;;;;5056646;28;20196;-79
2023/04/06 07:08:00;;;;;;;5.17;2.47;;;3.70;99.90;;;;;;5074882;28;20206;-79
2023/04/06 07:10:27;;;;;;;4.27;2.60;;;3.70;99.90;;;;;;5056067;28;20210;-74
2023/04/06 07:12:55;;;;;;;4.67;2.47;;;3.70;99.90;;;;;;5055978;28;20186;-76
2023/04/06 07:15:22;;;;;;;6.60;2.87;;;3.60;99.90;;;;;;5055959;28;20222;-75
2023/04/06 07:17:49;;;;;;;5.87;2.97;;;3.60;99.90;;;;;;5039497;28;20216;-76
2023/04/06 07:20:16;;;;;;;7.90;2.93;;;3.50;99.90;;;;;;5073607;28;20217;-76
2023/04/06 07:22:45;;;;;;;6.60;2.80;;;3.60;99.90;;;;;;5056007;28;20684;-76
2023/04/06 07:25:14;;;;;;;5.77;2.93;;;3.50;99.90;;;;;;5073484;28;20258;-81
2023/04/06 07:27:42;;;;;;;6.23;2.70;;;3.60;99.90;;;;;;5055604;28;20228;-80
2023/04/06 07:30:10;;;;;;;6.03;3.23;;;3.90;99.90;;;;;;5073578;28;20300;-76
2023/04/06 07:32:39;;;;;;;5.83;2.83;;;4.00;99.90;;;;;;5055664;28;20602;-76
2023/04/06 07:35:06;;;;;;;5.30;2.77;;;4.00;99.90;;;;;;5073341;28;20521;-75
2023/04/06 07:37:34;;;;;;;6.20;3.17;;;3.90;99.90;;;;;;5055374;28;20257;-74
2023/04/06 07:40:02;;;;;;;6.90;3.13;;;4.00;99.90;;;;;;5056152;28;20231;-75
2023/04/06 07:42:28;;;;;;;5.47;3.03;;;3.90;99.90;;;;;;5039108;28;20656;-77
2023/04/06 07:44:55;;;;;;;5.30;2.93;;;3.90;99.90;;;;;;5074293;28;20273;-77
2023/04/06 07:47:23;;;;;;;6.07;3.00;;;3.90;99.90;;;;;;5056922;28;20283;-76
2023/04/06 07:49:50;;;;;;;5.93;3.07;;;4.00;99.90;;;;;;5059776;28;20228;-80
2023/04/06 07:52:17;;;;;;;6.40;2.70;;;4.20;99.90;;;;;;5061924;28;20194;-83
2023/04/06 07:54:46;;;;;;;5.07;3.10;;;4.30;99.90;;;;;;5040484;28;20193;-77
2023/04/06 07:57:13;;;;;;;5.77;2.90;;;4.50;99.90;;;;;;5073572;28;20203;-77
2023/04/06 07:59:40;;;;;;;7.00;2.90;;;4.30;99.90;;;;;;5073292;28;20657;-77
2023/04/06 08:02:07;;;;;;;5.90;2.80;;;4.30;99.90;;;;;;5055284;28;20190;-76
2023/04/06 08:04:35;;;;;;;7.87;3.00;;;4.20;99.90;;;;;;5055157;28;20300;-76
2023/04/06 08:07:03;;;;;;;4.27;2.80;;;4.30;99.90;;;;;;5055006;28;20198;-76
2023/04/06 08:09:30;;;;;;;5.17;2.90;;;4.50;99.90;;;;;;5055259;28;20286;-74
2023/04/06 08:11:57;;;;;;;5.87;3.00;;;4.40;99.90;;;;;;5054013;28;20216;-72
2023/04/06 08:14:24;;;;;;;7.47;2.70;;;4.30;99.90;;;;;;5104125;23;20181;-71
2023/04/06 08:16:51;;;;;;;4.17;2.60;;;4.30;99.90;;;;;;5054171;28;20223;-72
2023/04/06 08:19:18;;;;;;;7.00;3.07;;;4.20;99.90;;;;;;5054541;28;20192;-72
2023/04/06 08:21:47;;;;;;;4.33;2.60;;;4.20;99.90;;;;;;5055012;28;20249;-72
2023/04/06 08:24:14;;;;;;;4.93;2.93;;;4.10;99.90;;;;;;5037885;28;20667;-75
2023/04/06 08:26:42;;;;;;;5.77;2.60;;;4.30;99.90;;;;;;5054516;28;20297;-71
2023/04/06 08:29:09;;;;;;;6.77;2.80;;;4.30;99.90;;;;;;5054707;28;20203;-73
2023/04/06 08:31:36;;;;;;;5.33;2.87;;;4.30;99.90;;;;;;5072281;28;20663;-70
2023/04/06 08:34:04;;;;;;;6.93;2.93;;;4.30;99.90;;;;;;5072308;28;20225;-71
2023/04/06 08:36:31;;;;;;;7.00;3.10;;;4.20;99.90;;;;;;5072353;28;20264;-71
2023/04/06 08:38:59;;;;;;;4.90;2.80;;;4.30;99.90;;;;;;5072510;28;20192;-72
2023/04/06 08:41:27;;;;;;;4.67;2.73;;;4.20;99.90;;;;;;5054339;28;20192;-73
2023/04/06 08:44:01;;;;;;;6.63;3.03;;;4.30;99.90;;;;;;5053806;28;20538;-73
2023/04/06 08:46:31;;;;;;;6.37;3.20;;;4.20;99.90;;;;;;5072412;28;20212;-73
2023/04/06 08:49:01;;;;;;;5.13;3.20;;;4.10;99.90;;;;;;5054164;28;20199;-72
2023/04/06 08:51:32;;;;;;;5.67;2.80;;;4.20;99.90;;;;;;5054342;28;20215;-73
2023/04/06 08:53:59;;;;;;;7.53;3.20;;;4.20;99.90;;;;;;5054232;28;20196;-72
2023/04/06 08:56:27;;;;;;;7.47;3.07;;;4.20;99.90;;;;;;5054285;28;20203;-70
2023/04/06 08:58:55;;;;;;;5.23;2.80;;;4.20;99.90;;;;;;5054516;28;20196;-71
2023/04/06 09:01:27;;;;;;;7.10;3.00;;;4.30;99.90;;;;;;5054206;28;20637;-72
2023/04/06 09:04:04;;;;;;;4.50;3.00;;;4.30;99.90;;;;;;5054044;28;20201;-72
2023/04/06 09:06:36;;;;;;;5.83;2.80;;;4.10;99.90;;;;;;5054110;28;20198;-72
2023/04/06 09:09:03;;;;;;;7.87;3.03;;;4.30;99.90;;;;;;5054336;28;20199;-74
2023/04/06 09:11:48;;;;;;;6.57;2.83;;;4.40;99.90;;;;;;5037475;28;20627;-73
2023/04/06 09:14:16;;;;;;;5.70;2.80;;;4.40;99.90;;;;;;5053851;28;20186;-74
2023/04/06 09:16:45;;;;;;;6.47;2.90;;;4.50;99.90;;;;;;5050469;28;20231;-75
2023/04/06 09:19:12;;;;;;;6.13;3.10;;;4.50;99.90;;;;;;5050251;28;20528;-74
2023/04/06 09:21:40;;;;;;;7.33;2.87;;;4.40;99.90;;;;;;5052427;28;20300;-73
2023/04/06 09:24:08;;;;;;;4.47;2.80;;;4.40;99.90;;;;;;5055869;28;20201;-72
2023/04/06 09:26:46;;;;;;;5.43;2.80;;;4.40;99.90;;;;;;5055496;28;20249;-74
2023/04/06 09:29:26;;;;;;;6.30;3.17;;;4.20;99.90;;;;;;5054343;28;20569;-70
2023/04/06 09:32:03;;;;;;;6.67;3.20;;;4.00;99.90;;;;;;5055643;28;20212;-73
2023/04/06 09:34:30;;;;;;;4.67;2.87;;;4.10;99.90;;;;;;5056309;28;20191;-73
2023/04/06 09:36:58;;;;;;;5.57;3.37;;;4.00;99.90;;;;;;5054594;28;20197;-74
2023/04/06 09:39:26;;;;;;;8.13;3.20;;;4.00;99.90;;;;;;5056200;28;20183;-77
2023/04/06 09:41:56;;;;;;;5.80;3.47;;;3.90;99.90;;;;;;5056525;28;20660;-77
2023/04/06 09:44:23;;;;;;;6.00;3.50;;;3.70;99.90;;;;;;5055199;28;20200;-75
2023/04/06 09:46:54;;;;;;;7.87;3.70;;;3.70;99.90;;;;;;5054316;28;20237;-76
2023/04/06 09:49:33;;;;;;;6.53;3.70;;;3.70;99.90;;;;;;5054660;28;20195;-79
2023/04/06 09:52:03;;;;;;;6.10;3.67;;;3.70;99.90;;;;;;5054185;28;20318;-78
2023/04/06 09:54:31;;;;;;;7.33;3.73;;;3.60;99.90;;;;;;5054118;28;20667;-73
2023/04/06 09:57:31;;;;;;;8.97;4.13;;;3.60;99.90;;;;;;5054179;28;20199;-75
2023/04/06 10:00:14;;;;;;;5.93;3.73;;;3.60;99.90;;;;;;5054145;28;20197;-75
2023/04/06 10:03:19;;;;;;;7.43;3.90;;;3.50;99.90;;;;;;5055854;28;20236;-76
2023/04/06 10:05:55;;;;;;;8.53;4.47;;;3.40;99.90;;;;;;5054382;28;20206;-73
2023/04/06 10:08:27;;;;;;;6.40;3.73;;;3.30;99.90;;;;;;5055785;28;20199;-74
2023/04/06 10:11:00;;;;;;;6.80;3.83;;;3.20;99.90;;;;;;5056098;28;20529;-74
2023/04/06 10:13:27;;;;;;;7.83;4.10;;;3.30;99.90;;;;;;5054317;28;20203;-76
2023/04/06 10:15:54;;;;;;;5.93;4.00;;;3.30;99.90;;;;;;5067757;28;20224;-75
2023/04/06 10:18:22;;;;;;;7.77;4.37;;;3.50;99.90;;;;;;5075297;28;20271;-75
2023/04/06 10:21:09;;;;;;;6.30;4.20;;;3.50;99.90;;;;;;5057236;28;20220;-78
2023/04/06 10:23:40;;;;;;;8.83;4.70;;;3.50;99.90;;;;;;5075418;28;20187;-76
2023/04/06 10:26:13;;;;;;;9.60;5.07;;;3.60;99.90;;;;;;5057114;28;20213;-76
2023/04/06 10:28:42;;;;;;;9.70;5.20;;;3.50;99.90;;;;;;5057453;28;20212;-76
2023/04/06 10:31:09;;;;;;;9.93;5.83;;;3.50;99.90;;;;;;5057140;28;20232;-75
2023/04/06 10:33:37;;;;;;;9.00;6.00;;;3.50;99.90;;;;;;5074455;28;20219;-77
2023/04/06 10:36:34;;;;;;;8.27;5.60;;;3.40;99.90;;;;;;5056860;28;20659;-74
2023/04/06 10:39:06;;;;;;;10.40;5.73;;;3.40;99.90;;;;;;5073188;28;20201;-75
2023/04/06 10:41:48;;;;;;;10.37;6.43;;;3.40;99.90;;;;;;5056628;28;20290;-74
2023/04/06 10:44:23;;;;;;;12.97;6.67;;;3.30;99.90;;;;;;5056583;28;20206;-76
2023/04/06 10:46:57;;;;;;;10.50;6.40;;;3.30;99.90;;;;;;5056796;28;20296;-74
2023/04/06 10:49:27;;;;;;;12.87;6.40;;;3.30;99.90;;;;;;5056814;28;20288;-75
2023/04/06 10:51:56;;;;;;;7.67;5.10;;;3.20;99.90;;;;;;5056589;28;20229;-74
2023/04/06 10:54:25;;;;;;;8.77;5.57;;;3.20;99.90;;;;;;5056923;28;20201;-73
2023/04/06 10:56:52;;;;;;;8.40;5.20;;;3.10;99.90;;;;;;5056688;28;20200;-76
2023/04/06 10:59:21;;;;;;;7.67;5.10;;;3.10;99.90;;;;;;5056789;28;20229;-75
2023/04/06 11:01:48;;;;;;;10.07;4.93;;;3.20;99.90;;;;;;5074648;28;20191;-73
2023/04/06 11:04:23;;;;;;;10.93;6.03;;;3.10;99.90;;;;;;5074447;28;20278;-76
2023/04/06 11:06:51;;;;;;;8.83;6.33;;;3.20;99.90;;;;;;5056673;28;20647;-75
2023/04/06 11:09:25;;;;;;;10.73;6.97;;;3.30;99.90;;;;;;5056360;28;20199;-80
2023/04/06 11:11:55;;;;;;;10.67;6.60;;;3.30;99.90;;;;;;5040190;28;20579;-78
2023/04/06 11:14:23;;;;;;;12.20;6.80;;;3.20;99.90;;;;;;5074029;28;20194;-77
2023/04/06 11:16:51;;;;;;;13.77;7.03;;;3.20;99.90;;;;;;5056298;28;20207;-78
2023/04/06 11:19:18;;;;;;;11.20;7.50;;;3.30;99.90;;;;;;5074280;28;20190;-75
2023/04/06 11:21:52;;;;;;;10.87;7.17;;;3.30;99.90;;;;;;5055895;28;20218;-75
2023/04/06 11:24:20;;;;;;;11.57;6.90;;;3.30;99.90;;;;;;5052712;28;20199;-75
2023/04/06 11:26:48;;;;;;;11.57;7.57;;;3.30;99.90;;;;;;5064980;28;20203;-76
2023/04/06 11:29:23;;;;;;;9.87;6.33;;;3.30;99.90;;;;;;5044722;28;20241;-73
2023/04/06 11:31:52;;;;;;;9.23;6.30;;;3.20;99.90;;;;;;5036445;28;20251;-74
2023/04/06 11:34:21;;;;;;;10.50;6.80;;;3.10;99.90;;;;;;5053217;28;20186;-75
2023/04/06 11:36:57;;;;;;;12.97;7.10;;;3.00;99.90;;;;;;5055693;28;20219;-75
2023/04/06 11:39:27;;;;;;;12.20;7.17;;;3.10;99.90;;;;;;5056156;28;20610;-75
2023/04/06 11:41:59;;;;;;;9.60;7.03;;;3.10;99.90;;;;;;5046322;28;20195;-75
2023/04/06 11:44:38;;;;;;;11.10;6.60;;;3.10;99.90;;;;;;5053572;28;20286;-74
2023/04/06 11:47:07;;;;;;;12.27;6.63;;;3.20;99.90;;;;;;5052681;28;20241;-77
2023/04/06 11:49:38;;;;;;;9.23;5.90;;;3.30;99.90;;;;;;5036185;28;20204;-75
2023/04/06 11:52:19;;;;;;;10.83;6.00;;;3.20;99.90;;;;;;5053878;28;20222;-75
2023/04/06 11:54:47;;;;;;;10.57;6.17;;;3.20;99.90;;;;;;5053211;28;20285;-74
2023/04/06 11:57:19;;;;;;;9.87;5.80;;;3.20;99.90;;;;;;5035574;28;20228;-75
2023/04/06 11:59:47;;;;;;;9.07;5.73;;;3.30;99.90;;;;;;5069399;28;20194;-76
2023/04/06 12:02:14;;;;;;;10.40;5.93;;;3.30;99.90;;;;;;5055491;28;20298;-76
2023/04/06 12:04:40;;;;;;;8.60;5.40;;;3.40;99.90;;;;;;5073486;28;20198;-77
2023/04/06 12:07:08;;;;;;;11.13;5.30;;;3.40;99.90;;;;;;5055064;28;20200;-76
2023/04/06 12:09:38;;;;;;;10.23;5.27;;;3.30;99.90;;;;;;5055499;28;20210;-76
2023/04/06 12:12:08;;;;;;;10.30;5.27;;;3.50;99.90;;;;;;5073004;28;20218;-74
2023/04/06 12:14:38;;;;;;;8.03;5.17;;;3.50;99.90;;;;;;5072899;28;20184;-74
2023/04/06 12:17:05;;;;;;;7.80;4.83;;;3.60;99.90;;;;;;5072988;28;20225;-75
2023/04/06 12:19:32;;;;;;;8.80;4.97;;;3.50;99.90;;;;;;5038436;28;20211;-74
2023/04/06 12:21:59;;;;;;;7.33;5.00;;;3.50;99.90;;;;;;5054234;28;20222;-75
2023/04/06 12:24:31;;;;;;;7.70;4.67;;;3.60;99.90;;;;;;5052388;28;20195;-75
2023/04/06 12:26:58;;;;;;;9.37;4.77;;;3.60;99.90;;;;;;5034792;28;20654;-74
2023/04/06 12:29:36;;;;;;;7.20;4.53;;;3.60;99.90;;;;;;5052779;28;20191;-74
2023/04/06 12:32:03;;;;;;;9.20;5.00;;;3.50;99.90;;;;;;5034881;28;20215;-75
2023/04/06 12:34:30;;;;;;;8.83;5.50;;;3.60;99.90;;;;;;5034951;28;20210;-75
2023/04/06 12:36:57;;;;;;;8.40;5.20;;;3.60;99.90;;;;;;5034625;28;20644;-76
2023/04/06 12:39:25;;;;;;;9.57;5.80;;;3.60;99.90;;;;;;5052582;28;20195;-74
2023/04/06 12:41:52;;;;;;;8.37;5.00;;;3.70;99.90;;;;;;5034637;28;20210;-74
2023/04/06 12:44:19;;;;;;;8.83;5.10;;;3.70;99.90;;;;;;5052296;28;20503;-74
2023/04/06 12:46:46;;;;;;;8.13;4.60;;;3.60;99.90;;;;;;5052394;28;20195;-75
2023/04/06 12:49:13;;;;;;;9.20;5.27;;;3.60;99.90;;;;;;5034275;28;20641;-77
2023/04/06 12:51:40;;;;;;;9.60;5.57;;;3.50;99.90;;;;;;5034727;28;20221;-74
2023/04/06 12:54:07;;;;;;;7.50;5.00;;;3.60;99.90;;;;;;5034956;28;20210;-76
2023/04/06 12:56:34;;;;;;;8.80;5.33;;;3.60;99.90;;;;;;5034237;28;20197;-77
2023/04/06 12:59:01;;;;;;;9.00;5.23;;;3.70;99.90;;;;;;5051870;28;20811;-75
2023/04/06 13:01:28;;;;;;;11.07;5.57;;;3.80;99.90;;;;;;5052166;28;20518;-75